sensor_id;sensor_type;location;lat;lon;timestamp;temperature;humidity
15630;DHT22;7914;50.842;0.166;2023-08-06T00:00:16;12.90;100.00
15630;DHT22;7914;50.842;0.166;2023-08-06T00:02:42;12.80;100.00
15630;DHT22;7914;50.842;0.166;2023-08-06T00:05:08;12.90;100.00
15630;DHT22;7914;50.842;0.166;2023-08-06T00:07:33;12.90;100.00
15630;DHT22;7914;50.842;0.166;2023-08-06T00:09:59;13.00;100.00
15630;DHT22;7914;50.842;0.166;2023-08-06T00:12:24;13.10;100.00
15630;DHT22;7914;50.842;0.166;2023-08-06T00:14:53;13.20;100.00
15630;DHT22;7914;50.842;0.166;2023-08-06T00:17:19;13.20;100.00
15630;DHT22;7914;50.842;0.166;2023-08-06T00:19:44;13.30;100.00
15630;DHT22;7914;50.842;0.166;2023-08-06T00:22:10;13.40;100.00
15630;DHT22;7914;50.842;0.166;2023-08-06T00:24:36;13.40;100.00
15630;DHT22;7914;50.842;0.166;2023-08-06T00:27:02;13.40;100.00
15630;DHT22;7914;50.842;0.166;2023-08-06T00:29:27;13.50;100.00
15630;DHT22;7914;50.842;0.166;2023-08-06T00:31:53;13.50;100.00
15630;DHT22;7914;50.842;0.166;2023-08-06T00:34:19;13.50;100.00
15630;DHT22;7914;50.842;0.166;2023-08-06T00:36:44;13.50;100.00
15630;DHT22;7914;50.842;0.166;2023-08-06T00:39:10;13.50;100.00
15630;DHT22;7914;50.842;0.166;2023-08-06T00:41:36;13.50;100.00
15630;DHT22;7914;50.842;0.166;2023-08-06T00:44:02;13.60;100.00
15630;DHT22;7914;50.842;0.166;2023-08-06T00:46:28;13.50;100.00
15630;DHT22;7914;50.842;0.166;2023-08-06T00:48:54;13.50;100.00
15630;DHT22;7914;50.842;0.166;2023-08-06T00:51:20;13.50;100.00
15630;DHT22;7914;50.842;0.166;2023-08-06T00:53:47;13.50;100.00
15630;DHT22;7914;50.842;0.166;2023-08-06T00:56:13;13.50;100.00
15630;DHT22;7914;50.842;0.166;2023-08-06T00:58:39;13.50;100.00
15630;DHT22;7914;50.842;0.166;2023-08-06T01:01:05;13.50;100.00
15630;DHT22;7914;50.842;0.166;2023-08-06T01:03:31;13.50;100.00
15630;DHT22;7914;50.842;0.166;2023-08-06T01:05:57;13.50;100.00
15630;DHT22;7914;50.842;0.166;2023-08-06T01:09:05;13.50;100.00
15630;DHT22;7914;50.842;0.166;2023-08-06T01:11:38;13.40;100.00
15630;DHT22;7914;50.842;0.166;2023-08-06T01:17:15;13.50;100.00
15630;DHT22;7914;50.842;0.166;2023-08-06T01:19:40;13.50;100.00
15630;DHT22;7914;50.842;0.166;2023-08-06T01:22:06;13.40;100.00
15630;DHT22;7914;50.842;0.166;2023-08-06T01:24:32;13.40;100.00
15630;DHT22;7914;50.842;0.166;2023-08-06T01:27:06;13.40;100.00
15630;DHT22;7914;50.842;0.166;2023-08-06T01:29:35;13.50;100.00
15630;DHT22;7914;50.842;0.166;2023-08-06T01:32:03;13.40;100.00
15630;DHT22;7914;50.842;0.166;2023-08-06T01:34:32;13.40;100.00
15630;DHT22;7914;50.842;0.166;2023-08-06T01:37:00;13.40;100.00
15630;DHT22;7914;50.842;0.166;2023-08-06T01:39:26;13.40;100.00
15630;DHT22;7914;50.842;0.166;2023-08-06T01:41:52;13.30;100.00
15630;DHT22;7914;50.842;0.166;2023-08-06T01:44:20;13.40;100.00
15630;DHT22;7914;50.842;0.166;2023-08-06T01:46:46;13.30;100.00
15630;DHT22;7914;50.842;0.166;2023-08-06T01:49:12;13.30;100.00
15630;DHT22;7914;50.842;0.166;2023-08-06T01:51:37;13.30;100.00
15630;DHT22;7914;50.842;0.166;2023-08-06T01:54:03;13.20;100.00
15630;DHT22;7914;50.842;0.166;2023-08-06T01:56:29;13.20;100.00
15630;DHT22;7914;50.842;0.166;2023-08-06T01:58:54;13.10;100.00
15630;DHT22;7914;50.842;0.166;2023-08-06T02:01:20;13.00;100.00
15630;DHT22;7914;50.842;0.166;2023-08-06T02:03:45;12.80;100.00
15630;DHT22;7914;50.842;0.166;2023-08-06T02:06:11;12.80;100.00
15630;DHT22;7914;50.842;0.166;2023-08-06T02:08:37;12.70;100.00
15630;DHT22;7914;50.842;0.166;2023-08-06T02:11:03;12.70;100.00
15630;DHT22;7914;50.842;0.166;2023-08-06T02:13:29;12.50;100.00
15630;DHT22;7914;50.842;0.166;2023-08-06T02:15:55;12.50;100.00
15630;DHT22;7914;50.842;0.166;2023-08-06T02:18:20;12.40;100.00
15630;DHT22;7914;50.842;0.166;2023-08-06T02:20:56;12.40;100.00
15630;DHT22;7914;50.842;0.166;2023-08-06T02:23:25;12.30;100.00
15630;DHT22;7914;50.842;0.166;2023-08-06T02:26:11;12.30;100.00
15630;DHT22;7914;50.842;0.166;2023-08-06T02:28:37;12.20;100.00
15630;DHT22;7914;50.842;0.166;2023-08-06T02:31:03;12.20;100.00
15630;DHT22;7914;50.842;0.166;2023-08-06T02:33:28;12.10;100.00
15630;DHT22;7914;50.842;0.166;2023-08-06T02:36:04;12.10;100.00
15630;DHT22;7914;50.842;0.166;2023-08-06T02:38:30;12.00;100.00
15630;DHT22;7914;50.842;0.166;2023-08-06T02:40:57;12.00;100.00
15630;DHT22;7914;50.842;0.166;2023-08-06T02:43:22;12.00;100.00
15630;DHT22;7914;50.842;0.166;2023-08-06T02:45:48;12.00;100.00
15630;DHT22;7914;50.842;0.166;2023-08-06T02:48:14;11.90;100.00
15630;DHT22;7914;50.842;0.166;2023-08-06T02:50:40;11.90;100.00
15630;DHT22;7914;50.842;0.166;2023-08-06T02:53:07;11.90;100.00
15630;DHT22;7914;50.842;0.166;2023-08-06T02:55:33;11.80;100.00
15630;DHT22;7914;50.842;0.166;2023-08-06T02:58:00;11.80;100.00
15630;DHT22;7914;50.842;0.166;2023-08-06T03:00:26;11.70;100.00
15630;DHT22;7914;50.842;0.166;2023-08-06T03:02:53;11.70;100.00
15630;DHT22;7914;50.842;0.166;2023-08-06T03:05:18;11.70;100.00
15630;DHT22;7914;50.842;0.166;2023-08-06T03:07:44;11.60;100.00
15630;DHT22;7914;50.842;0.166;2023-08-06T03:10:10;11.60;100.00
15630;DHT22;7914;50.842;0.166;2023-08-06T03:12:35;11.60;100.00
15630;DHT22;7914;50.842;0.166;2023-08-06T03:15:01;11.60;100.00
15630;DHT22;7914;50.842;0.166;2023-08-06T03:17:27;11.50;100.00
15630;DHT22;7914;50.842;0.166;2023-08-06T03:19:53;11.60;100.00
15630;DHT22;7914;50.842;0.166;2023-08-06T03:22:18;11.60;100.00
15630;DHT22;7914;50.842;0.166;2023-08-06T03:24:44;11.50;100.00
15630;DHT22;7914;50.842;0.166;2023-08-06T03:27:10;11.50;100.00
15630;DHT22;7914;50.842;0.166;2023-08-06T03:29:35;11.40;100.00
15630;DHT22;7914;50.842;0.166;2023-08-06T03:32:01;11.40;100.00
15630;DHT22;7914;50.842;0.166;2023-08-06T03:34:27;11.40;100.00
15630;DHT22;7914;50.842;0.166;2023-08-06T03:36:53;11.30;100.00
15630;DHT22;7914;50.842;0.166;2023-08-06T03:39:18;11.30;100.00
15630;DHT22;7914;50.842;0.166;2023-08-06T03:41:44;11.40;100.00
15630;DHT22;7914;50.842;0.166;2023-08-06T03:44:10;11.20;100.00
15630;DHT22;7914;50.842;0.166;2023-08-06T03:46:35;11.20;100.00
15630;DHT22;7914;50.842;0.166;2023-08-06T03:49:01;11.20;100.00
15630;DHT22;7914;50.842;0.166;2023-08-06T03:51:27;11.20;100.00
15630;DHT22;7914;50.842;0.166;2023-08-06T03:53:52;11.20;100.00
15630;DHT22;7914;50.842;0.166;2023-08-06T03:56:18;11.20;100.00
15630;DHT22;7914;50.842;0.166;2023-08-06T03:58:44;11.20;100.00
15630;DHT22;7914;50.842;0.166;2023-08-06T04:01:09;11.10;100.00
15630;DHT22;7914;50.842;0.166;2023-08-06T04:03:35;11.10;100.00
15630;DHT22;7914;50.842;0.166;2023-08-06T04:06:02;11.10;100.00
15630;DHT22;7914;50.842;0.166;2023-08-06T04:08:28;11.00;100.00
15630;DHT22;7914;50.842;0.166;2023-08-06T04:10:54;11.00;100.00
15630;DHT22;7914;50.842;0.166;2023-08-06T04:13:20;11.00;100.00
15630;DHT22;7914;50.842;0.166;2023-08-06T04:15:46;11.00;100.00
15630;DHT22;7914;50.842;0.166;2023-08-06T04:18:12;11.00;100.00
15630;DHT22;7914;50.842;0.166;2023-08-06T04:20:47;11.00;100.00
15630;DHT22;7914;50.842;0.166;2023-08-06T04:23:14;10.90;100.00
15630;DHT22;7914;50.842;0.166;2023-08-06T04:25:40;10.90;100.00
15630;DHT22;7914;50.842;0.166;2023-08-06T04:28:07;11.00;100.00
15630;DHT22;7914;50.842;0.166;2023-08-06T04:30:33;10.90;100.00
15630;DHT22;7914;50.842;0.166;2023-08-06T04:32:59;10.80;100.00
15630;DHT22;7914;50.842;0.166;2023-08-06T04:35:25;10.80;100.00
15630;DHT22;7914;50.842;0.166;2023-08-06T04:37:51;10.90;100.00
15630;DHT22;7914;50.842;0.166;2023-08-06T04:40:17;10.80;100.00
15630;DHT22;7914;50.842;0.166;2023-08-06T04:42:42;10.80;100.00
15630;DHT22;7914;50.842;0.166;2023-08-06T04:45:08;10.80;100.00
15630;DHT22;7914;50.842;0.166;2023-08-06T04:47:34;10.90;100.00
15630;DHT22;7914;50.842;0.166;2023-08-06T04:50:00;10.90;100.00
15630;DHT22;7914;50.842;0.166;2023-08-06T04:52:25;10.90;100.00
15630;DHT22;7914;50.842;0.166;2023-08-06T04:54:54;11.00;100.00
15630;DHT22;7914;50.842;0.166;2023-08-06T04:57:20;11.00;100.00
15630;DHT22;7914;50.842;0.166;2023-08-06T04:59:46;11.00;100.00
15630;DHT22;7914;50.842;0.166;2023-08-06T05:02:12;11.20;100.00
15630;DHT22;7914;50.842;0.166;2023-08-06T05:04:38;11.20;100.00
15630;DHT22;7914;50.842;0.166;2023-08-06T05:07:05;11.40;100.00
15630;DHT22;7914;50.842;0.166;2023-08-06T05:09:31;11.50;100.00
15630;DHT22;7914;50.842;0.166;2023-08-06T05:11:56;11.50;100.00
15630;DHT22;7914;50.842;0.166;2023-08-06T05:14:22;11.70;100.00
15630;DHT22;7914;50.842;0.166;2023-08-06T05:16:48;11.80;100.00
15630;DHT22;7914;50.842;0.166;2023-08-06T05:19:13;11.90;100.00
15630;DHT22;7914;50.842;0.166;2023-08-06T05:21:39;12.20;100.00
15630;DHT22;7914;50.842;0.166;2023-08-06T05:24:05;12.40;100.00
15630;DHT22;7914;50.842;0.166;2023-08-06T05:26:31;12.60;100.00
15630;DHT22;7914;50.842;0.166;2023-08-06T05:28:56;13.00;100.00
15630;DHT22;7914;50.842;0.166;2023-08-06T05:31:22;13.20;100.00
15630;DHT22;7914;50.842;0.166;2023-08-06T05:33:48;13.40;100.00
15630;DHT22;7914;50.842;0.166;2023-08-06T05:36:13;13.40;100.00
15630;DHT22;7914;50.842;0.166;2023-08-06T05:38:39;13.30;100.00
15630;DHT22;7914;50.842;0.166;2023-08-06T05:41:05;13.40;100.00
15630;DHT22;7914;50.842;0.166;2023-08-06T05:43:30;13.40;100.00
15630;DHT22;7914;50.842;0.166;2023-08-06T05:45:56;13.30;100.00
15630;DHT22;7914;50.842;0.166;2023-08-06T05:48:22;13.40;100.00
15630;DHT22;7914;50.842;0.166;2023-08-06T05:50:51;13.40;100.00
15630;DHT22;7914;50.842;0.166;2023-08-06T05:53:17;13.50;100.00
15630;DHT22;7914;50.842;0.166;2023-08-06T05:55:43;13.60;100.00
15630;DHT22;7914;50.842;0.166;2023-08-06T05:58:09;13.70;100.00
15630;DHT22;7914;50.842;0.166;2023-08-06T06:00:34;13.70;100.00
15630;DHT22;7914;50.842;0.166;2023-08-06T06:03:12;13.90;100.00
15630;DHT22;7914;50.842;0.166;2023-08-06T06:05:38;13.80;100.00
15630;DHT22;7914;50.842;0.166;2023-08-06T06:08:04;14.00;100.00
15630;DHT22;7914;50.842;0.166;2023-08-06T06:10:30;14.10;100.00
15630;DHT22;7914;50.842;0.166;2023-08-06T06:12:56;14.30;100.00
15630;DHT22;7914;50.842;0.166;2023-08-06T06:15:22;14.20;100.00
15630;DHT22;7914;50.842;0.166;2023-08-06T06:17:47;14.10;100.00
15630;DHT22;7914;50.842;0.166;2023-08-06T06:20:13;14.20;100.00
15630;DHT22;7914;50.842;0.166;2023-08-06T06:22:39;14.40;100.00
15630;DHT22;7914;50.842;0.166;2023-08-06T06:25:05;14.40;100.00
15630;DHT22;7914;50.842;0.166;2023-08-06T06:27:31;14.30;100.00
15630;DHT22;7914;50.842;0.166;2023-08-06T06:29:56;14.40;100.00
15630;DHT22;7914;50.842;0.166;2023-08-06T06:32:22;14.40;100.00
15630;DHT22;7914;50.842;0.166;2023-08-06T06:34:48;14.50;100.00
15630;DHT22;7914;50.842;0.166;2023-08-06T06:37:13;14.60;100.00
15630;DHT22;7914;50.842;0.166;2023-08-06T06:39:39;14.70;100.00
15630;DHT22;7914;50.842;0.166;2023-08-06T06:42:05;14.80;100.00
15630;DHT22;7914;50.842;0.166;2023-08-06T06:44:31;14.90;100.00
15630;DHT22;7914;50.842;0.166;2023-08-06T06:46:56;14.90;100.00
15630;DHT22;7914;50.842;0.166;2023-08-06T06:49:22;14.80;100.00
15630;DHT22;7914;50.842;0.166;2023-08-06T06:51:48;15.00;100.00
15630;DHT22;7914;50.842;0.166;2023-08-06T06:54:14;15.20;100.00
15630;DHT22;7914;50.842;0.166;2023-08-06T06:56:39;15.30;100.00
15630;DHT22;7914;50.842;0.166;2023-08-06T06:59:05;15.30;100.00
15630;DHT22;7914;50.842;0.166;2023-08-06T07:01:31;15.20;100.00
15630;DHT22;7914;50.842;0.166;2023-08-06T07:03:56;15.30;100.00
15630;DHT22;7914;50.842;0.166;2023-08-06T07:06:22;15.30;100.00
15630;DHT22;7914;50.842;0.166;2023-08-06T07:08:48;15.40;100.00
15630;DHT22;7914;50.842;0.166;2023-08-06T07:11:14;15.50;100.00
15630;DHT22;7914;50.842;0.166;2023-08-06T07:13:39;15.60;100.00
15630;DHT22;7914;50.842;0.166;2023-08-06T07:16:05;15.70;100.00
15630;DHT22;7914;50.842;0.166;2023-08-06T07:18:30;15.70;100.00
15630;DHT22;7914;50.842;0.166;2023-08-06T07:20:56;15.80;100.00
15630;DHT22;7914;50.842;0.166;2023-08-06T07:23:23;15.90;100.00
15630;DHT22;7914;50.842;0.166;2023-08-06T07:25:50;16.00;100.00
15630;DHT22;7914;50.842;0.166;2023-08-06T07:28:16;16.30;100.00
15630;DHT22;7914;50.842;0.166;2023-08-06T07:30:43;16.60;100.00
15630;DHT22;7914;50.842;0.166;2023-08-06T07:33:09;16.50;100.00
15630;DHT22;7914;50.842;0.166;2023-08-06T07:35:35;16.50;100.00
15630;DHT22;7914;50.842;0.166;2023-08-06T07:38:01;16.60;100.00
15630;DHT22;7914;50.842;0.166;2023-08-06T07:40:27;16.60;100.00
15630;DHT22;7914;50.842;0.166;2023-08-06T07:42:53;16.90;100.00
15630;DHT22;7914;50.842;0.166;2023-08-06T07:45:19;17.00;100.00
15630;DHT22;7914;50.842;0.166;2023-08-06T07:47:45;16.90;100.00
15630;DHT22;7914;50.842;0.166;2023-08-06T07:50:10;16.90;100.00
15630;DHT22;7914;50.842;0.166;2023-08-06T07:52:36;16.90;100.00
15630;DHT22;7914;50.842;0.166;2023-08-06T07:55:02;17.00;100.00
15630;DHT22;7914;50.842;0.166;2023-08-06T07:57:33;17.00;100.00
15630;DHT22;7914;50.842;0.166;2023-08-06T08:00:00;16.90;100.00
15630;DHT22;7914;50.842;0.166;2023-08-06T08:02:26;16.90;100.00
15630;DHT22;7914;50.842;0.166;2023-08-06T08:04:52;17.00;98.50
15630;DHT22;7914;50.842;0.166;2023-08-06T08:07:18;17.20;100.00
15630;DHT22;7914;50.842;0.166;2023-08-06T08:09:44;17.20;98.30
15630;DHT22;7914;50.842;0.166;2023-08-06T08:12:09;17.20;98.60
15630;DHT22;7914;50.842;0.166;2023-08-06T08:14:35;17.30;100.00
15630;DHT22;7914;50.842;0.166;2023-08-06T08:17:03;17.50;98.60
15630;DHT22;7914;50.842;0.166;2023-08-06T08:19:29;17.60;98.50
15630;DHT22;7914;50.842;0.166;2023-08-06T08:21:55;17.60;96.70
15630;DHT22;7914;50.842;0.166;2023-08-06T08:24:21;17.60;99.20
15630;DHT22;7914;50.842;0.166;2023-08-06T08:26:50;17.60;100.00
15630;DHT22;7914;50.842;0.166;2023-08-06T08:29:16;17.90;98.70
15630;DHT22;7914;50.842;0.166;2023-08-06T08:31:41;17.90;96.30
15630;DHT22;7914;50.842;0.166;2023-08-06T08:34:09;18.00;95.80
15630;DHT22;7914;50.842;0.166;2023-08-06T08:36:34;18.10;93.70
15630;DHT22;7914;50.842;0.166;2023-08-06T08:39:00;18.40;93.00
15630;DHT22;7914;50.842;0.166;2023-08-06T08:41:29;18.50;93.90
15630;DHT22;7914;50.842;0.166;2023-08-06T08:43:56;18.60;90.40
15630;DHT22;7914;50.842;0.166;2023-08-06T08:46:23;18.70;87.00
15630;DHT22;7914;50.842;0.166;2023-08-06T08:48:50;18.50;83.20
15630;DHT22;7914;50.842;0.166;2023-08-06T08:51:17;18.40;86.50
15630;DHT22;7914;50.842;0.166;2023-08-06T08:53:44;18.60;89.90
15630;DHT22;7914;50.842;0.166;2023-08-06T08:56:12;18.80;87.90
15630;DHT22;7914;50.842;0.166;2023-08-06T08:58:39;18.80;83.70
15630;DHT22;7914;50.842;0.166;2023-08-06T09:01:06;18.60;81.90
15630;DHT22;7914;50.842;0.166;2023-08-06T09:03:33;18.70;84.40
15630;DHT22;7914;50.842;0.166;2023-08-06T09:06:00;18.80;85.40
15630;DHT22;7914;50.842;0.166;2023-08-06T09:08:33;19.10;83.90
15630;DHT22;7914;50.842;0.166;2023-08-06T09:11:00;19.10;78.50
15630;DHT22;7914;50.842;0.166;2023-08-06T09:13:27;19.20;77.30
15630;DHT22;7914;50.842;0.166;2023-08-06T09:15:52;19.30;81.10
15630;DHT22;7914;50.842;0.166;2023-08-06T09:18:26;19.40;81.20
15630;DHT22;7914;50.842;0.166;2023-08-06T09:20:54;19.10;79.10
15630;DHT22;7914;50.842;0.166;2023-08-06T09:23:21;18.70;80.60
15630;DHT22;7914;50.842;0.166;2023-08-06T09:25:53;19.30;83.70
15630;DHT22;7914;50.842;0.166;2023-08-06T09:28:22;19.70;77.70
15630;DHT22;7914;50.842;0.166;2023-08-06T09:30:49;20.00;76.30
15630;DHT22;7914;50.842;0.166;2023-08-06T09:33:19;19.90;77.80
15630;DHT22;7914;50.842;0.166;2023-08-06T09:35:46;19.90;76.80
15630;DHT22;7914;50.842;0.166;2023-08-06T09:38:12;20.10;75.00
15630;DHT22;7914;50.842;0.166;2023-08-06T09:40:40;20.40;75.20
15630;DHT22;7914;50.842;0.166;2023-08-06T09:43:06;20.80;74.50
15630;DHT22;7914;50.842;0.166;2023-08-06T09:45:37;20.60;73.60
15630;DHT22;7914;50.842;0.166;2023-08-06T09:48:07;20.40;74.70
15630;DHT22;7914;50.842;0.166;2023-08-06T09:50:36;20.60;77.90
15630;DHT22;7914;50.842;0.166;2023-08-06T09:53:02;20.50;78.10
15630;DHT22;7914;50.842;0.166;2023-08-06T09:55:29;20.30;80.40
15630;DHT22;7914;50.842;0.166;2023-08-06T09:57:55;20.40;76.50
15630;DHT22;7914;50.842;0.166;2023-08-06T10:00:22;20.60;72.50
15630;DHT22;7914;50.842;0.166;2023-08-06T10:02:48;20.90;73.80
15630;DHT22;7914;50.842;0.166;2023-08-06T10:05:15;20.90;71.10
15630;DHT22;7914;50.842;0.166;2023-08-06T10:07:43;21.10;71.80
15630;DHT22;7914;50.842;0.166;2023-08-06T10:10:09;21.00;75.10
15630;DHT22;7914;50.842;0.166;2023-08-06T10:12:39;21.40;72.30
15630;DHT22;7914;50.842;0.166;2023-08-06T10:15:09;21.20;71.20
15630;DHT22;7914;50.842;0.166;2023-08-06T10:17:37;20.70;70.70
15630;DHT22;7914;50.842;0.166;2023-08-06T10:20:09;20.30;74.90
15630;DHT22;7914;50.842;0.166;2023-08-06T10:22:34;20.20;75.60
15630;DHT22;7914;50.842;0.166;2023-08-06T10:25:02;20.10;78.20
15630;DHT22;7914;50.842;0.166;2023-08-06T10:27:35;20.00;75.50
15630;DHT22;7914;50.842;0.166;2023-08-06T10:30:26;19.60;78.40
15630;DHT22;7914;50.842;0.166;2023-08-06T10:32:54;20.10;81.60
15630;DHT22;7914;50.842;0.166;2023-08-06T10:35:41;20.50;71.60
15630;DHT22;7914;50.842;0.166;2023-08-06T10:38:15;20.80;71.10
15630;DHT22;7914;50.842;0.166;2023-08-06T10:44:37;20.50;67.90
15630;DHT22;7914;50.842;0.166;2023-08-06T10:47:26;20.50;72.50
15630;DHT22;7914;50.842;0.166;2023-08-06T10:49:52;20.50;67.70
15630;DHT22;7914;50.842;0.166;2023-08-06T10:52:18;20.30;72.40
15630;DHT22;7914;50.842;0.166;2023-08-06T10:54:44;20.70;78.00
15630;DHT22;7914;50.842;0.166;2023-08-06T10:57:10;21.00;75.20
15630;DHT22;7914;50.842;0.166;2023-08-06T10:59:35;21.30;71.80
15630;DHT22;7914;50.842;0.166;2023-08-06T11:02:01;21.50;70.70
15630;DHT22;7914;50.842;0.166;2023-08-06T11:04:30;21.60;68.40
15630;DHT22;7914;50.842;0.166;2023-08-06T11:06:56;21.60;67.20
15630;DHT22;7914;50.842;0.166;2023-08-06T11:09:22;21.70;66.60
15630;DHT22;7914;50.842;0.166;2023-08-06T11:11:47;21.10;64.90
15630;DHT22;7914;50.842;0.166;2023-08-06T11:14:16;20.80;68.90
15630;DHT22;7914;50.842;0.166;2023-08-06T11:16:42;20.90;65.50
15630;DHT22;7914;50.842;0.166;2023-08-06T11:19:08;20.50;64.00
15630;DHT22;7914;50.842;0.166;2023-08-06T11:21:33;20.50;68.70
15630;DHT22;7914;50.842;0.166;2023-08-06T11:23:59;21.00;70.10
15630;DHT22;7914;50.842;0.166;2023-08-06T11:26:25;21.00;69.10
15630;DHT22;7914;50.842;0.166;2023-08-06T11:28:53;20.70;68.30
15630;DHT22;7914;50.842;0.166;2023-08-06T11:31:22;21.00;68.80
15630;DHT22;7914;50.842;0.166;2023-08-06T11:33:53;21.10;64.80
15630;DHT22;7914;50.842;0.166;2023-08-06T11:36:32;21.10;68.60
15630;DHT22;7914;50.842;0.166;2023-08-06T11:39:00;21.40;69.50
15630;DHT22;7914;50.842;0.166;2023-08-06T11:41:30;21.60;66.60
15630;DHT22;7914;50.842;0.166;2023-08-06T11:43:57;21.50;62.90
15630;DHT22;7914;50.842;0.166;2023-08-06T11:46:23;21.60;63.20
15630;DHT22;7914;50.842;0.166;2023-08-06T11:48:57;21.10;65.10
15630;DHT22;7914;50.842;0.166;2023-08-06T11:51:27;20.70;65.30
15630;DHT22;7914;50.842;0.166;2023-08-06T11:53:59;20.70;68.80
15630;DHT22;7914;50.842;0.166;2023-08-06T11:56:25;20.90;67.00
15630;DHT22;7914;50.842;0.166;2023-08-06T11:58:55;20.80;64.50
15630;DHT22;7914;50.842;0.166;2023-08-06T12:01:21;21.20;67.50
15630;DHT22;7914;50.842;0.166;2023-08-06T12:03:46;21.70;66.00
15630;DHT22;7914;50.842;0.166;2023-08-06T12:06:12;21.90;64.40
15630;DHT22;7914;50.842;0.166;2023-08-06T12:08:38;21.90;63.10
15630;DHT22;7914;50.842;0.166;2023-08-06T12:11:04;21.80;63.90
15630;DHT22;7914;50.842;0.166;2023-08-06T12:13:29;21.50;64.00
15630;DHT22;7914;50.842;0.166;2023-08-06T12:15:55;21.40;67.10
15630;DHT22;7914;50.842;0.166;2023-08-06T12:18:22;21.40;67.50
15630;DHT22;7914;50.842;0.166;2023-08-06T12:20:48;21.30;67.10
15630;DHT22;7914;50.842;0.166;2023-08-06T12:23:14;21.00;65.80
15630;DHT22;7914;50.842;0.166;2023-08-06T12:25:41;20.90;65.90
15630;DHT22;7914;50.842;0.166;2023-08-06T12:28:07;20.80;68.40
15630;DHT22;7914;50.842;0.166;2023-08-06T12:30:34;21.00;66.90
15630;DHT22;7914;50.842;0.166;2023-08-06T12:32:59;21.10;63.70
15630;DHT22;7914;50.842;0.166;2023-08-06T12:35:25;20.90;63.70
15630;DHT22;7914;50.842;0.166;2023-08-06T12:37:51;20.50;65.60
15630;DHT22;7914;50.842;0.166;2023-08-06T12:40:20;20.20;65.30
15630;DHT22;7914;50.842;0.166;2023-08-06T12:42:46;19.80;66.30
15630;DHT22;7914;50.842;0.166;2023-08-06T12:45:12;19.90;68.20
15630;DHT22;7914;50.842;0.166;2023-08-06T12:47:37;20.20;67.10
15630;DHT22;7914;50.842;0.166;2023-08-06T12:50:03;20.20;66.60
15630;DHT22;7914;50.842;0.166;2023-08-06T12:52:29;20.50;68.30
15630;DHT22;7914;50.842;0.166;2023-08-06T12:54:55;20.60;69.20
15630;DHT22;7914;50.842;0.166;2023-08-06T12:57:21;20.80;65.30
15630;DHT22;7914;50.842;0.166;2023-08-06T12:59:46;21.10;64.00
15630;DHT22;7914;50.842;0.166;2023-08-06T13:02:13;21.60;63.60
15630;DHT22;7914;50.842;0.166;2023-08-06T13:04:39;21.60;62.10
15630;DHT22;7914;50.842;0.166;2023-08-06T13:07:05;21.30;63.30
15630;DHT22;7914;50.842;0.166;2023-08-06T13:09:32;21.00;63.00
15630;DHT22;7914;50.842;0.166;2023-08-06T13:11:58;20.60;63.00
15630;DHT22;7914;50.842;0.166;2023-08-06T13:14:25;20.50;63.40
15630;DHT22;7914;50.842;0.166;2023-08-06T13:16:51;20.50;64.90
15630;DHT22;7914;50.842;0.166;2023-08-06T13:19:17;20.40;64.10
15630;DHT22;7914;50.842;0.166;2023-08-06T13:24:17;20.30;65.50
15630;DHT22;7914;50.842;0.166;2023-08-06T13:26:43;20.40;66.30
15630;DHT22;7914;50.842;0.166;2023-08-06T13:29:09;20.50;66.90
15630;DHT22;7914;50.842;0.166;2023-08-06T13:31:36;20.40;65.60
15630;DHT22;7914;50.842;0.166;2023-08-06T13:34:02;20.50;67.20
15630;DHT22;7914;50.842;0.166;2023-08-06T13:36:28;20.60;67.40
15630;DHT22;7914;50.842;0.166;2023-08-06T13:38:54;20.80;65.70
15630;DHT22;7914;50.842;0.166;2023-08-06T13:41:19;21.10;66.70
15630;DHT22;7914;50.842;0.166;2023-08-06T13:43:45;21.40;65.70
15630;DHT22;7914;50.842;0.166;2023-08-06T13:46:11;21.50;65.20
15630;DHT22;7914;50.842;0.166;2023-08-06T13:48:42;21.70;64.40
15630;DHT22;7914;50.842;0.166;2023-08-06T13:51:09;21.50;63.90
15630;DHT22;7914;50.842;0.166;2023-08-06T13:53:36;21.40;63.90
15630;DHT22;7914;50.842;0.166;2023-08-06T13:56:02;21.20;63.40
15630;DHT22;7914;50.842;0.166;2023-08-06T13:58:28;20.90;64.00
15630;DHT22;7914;50.842;0.166;2023-08-06T14:00:54;20.50;66.20
15630;DHT22;7914;50.842;0.166;2023-08-06T14:03:20;20.20;67.20
15630;DHT22;7914;50.842;0.166;2023-08-06T14:05:46;20.10;68.30
15630;DHT22;7914;50.842;0.166;2023-08-06T14:08:12;20.40;67.60
15630;DHT22;7914;50.842;0.166;2023-08-06T14:10:39;20.40;66.20
15630;DHT22;7914;50.842;0.166;2023-08-06T14:13:04;20.50;67.10
15630;DHT22;7914;50.842;0.166;2023-08-06T14:15:30;20.40;68.20
15630;DHT22;7914;50.842;0.166;2023-08-06T14:17:56;20.30;66.50
15630;DHT22;7914;50.842;0.166;2023-08-06T14:20:21;20.30;66.60
15630;DHT22;7914;50.842;0.166;2023-08-06T14:22:47;20.40;65.80
15630;DHT22;7914;50.842;0.166;2023-08-06T14:25:13;20.60;66.10
15630;DHT22;7914;50.842;0.166;2023-08-06T14:27:39;20.70;65.40
15630;DHT22;7914;50.842;0.166;2023-08-06T14:30:06;20.50;64.40
15630;DHT22;7914;50.842;0.166;2023-08-06T14:32:32;20.60;66.00
15630;DHT22;7914;50.842;0.166;2023-08-06T14:34:58;20.70;64.50
15630;DHT22;7914;50.842;0.166;2023-08-06T14:37:24;20.80;65.10
15630;DHT22;7914;50.842;0.166;2023-08-06T14:39:51;20.90;65.30
15630;DHT22;7914;50.842;0.166;2023-08-06T14:42:17;20.80;66.30
15630;DHT22;7914;50.842;0.166;2023-08-06T14:44:43;21.00;65.30
15630;DHT22;7914;50.842;0.166;2023-08-06T14:47:09;21.00;63.80
15630;DHT22;7914;50.842;0.166;2023-08-06T14:49:34;21.00;65.10
15630;DHT22;7914;50.842;0.166;2023-08-06T14:52:00;21.00;66.10
15630;DHT22;7914;50.842;0.166;2023-08-06T14:54:27;21.30;64.80
15630;DHT22;7914;50.842;0.166;2023-08-06T14:56:53;21.40;61.10
15630;DHT22;7914;50.842;0.166;2023-08-06T14:59:18;21.30;60.80
15630;DHT22;7914;50.842;0.166;2023-08-06T15:01:44;21.20;60.60
15630;DHT22;7914;50.842;0.166;2023-08-06T15:04:10;21.10;59.90
15630;DHT22;7914;50.842;0.166;2023-08-06T15:06:35;21.00;61.70
15630;DHT22;7914;50.842;0.166;2023-08-06T15:09:01;20.80;61.40
15630;DHT22;7914;50.842;0.166;2023-08-06T15:11:27;20.80;62.40
15630;DHT22;7914;50.842;0.166;2023-08-06T15:13:53;20.50;61.90
15630;DHT22;7914;50.842;0.166;2023-08-06T15:16:19;20.40;61.50
15630;DHT22;7914;50.842;0.166;2023-08-06T15:18:44;20.30;63.10
15630;DHT22;7914;50.842;0.166;2023-08-06T15:21:10;20.00;65.70
15630;DHT22;7914;50.842;0.166;2023-08-06T15:23:36;19.80;76.90
15630;DHT22;7914;50.842;0.166;2023-08-06T15:26:02;18.90;98.00
15630;DHT22;7914;50.842;0.166;2023-08-06T15:28:28;18.10;100.00
15630;DHT22;7914;50.842;0.166;2023-08-06T15:30:54;17.60;100.00
15630;DHT22;7914;50.842;0.166;2023-08-06T15:33:21;17.50;100.00
15630;DHT22;7914;50.842;0.166;2023-08-06T15:35:47;17.30;100.00
15630;DHT22;7914;50.842;0.166;2023-08-06T15:38:13;17.20;100.00
15630;DHT22;7914;50.842;0.166;2023-08-06T15:40:38;17.30;100.00
15630;DHT22;7914;50.842;0.166;2023-08-06T15:43:04;17.30;100.00